Southgate, MI (48195)

01:47 AM EDT on iulie 28, 2015 (GMT -0400)
Southgate | | Change Station
CLOSE
Current Station
Staţie meteo personală
Location: Southgate, MI
Elevation: 587 ft
Nearby Weather Stations

Elev 587 ft 42.21 °N, 83.19 °W | Updated 1 minute ago

Cer parţial noros
Cer parţial noros
71.9 °F
Feels Like 72 °F
N
1.0
Vânt variabil Vânt from SSV
Gusts 1.0 mph

astăzi
High -- | Low -- °F
--% Chance of Precip.
Ieri
High -- | Low -- °F
Precip. -- inch
6:21 AM 8:56 PM
Lună în creştere, 87% visible
Presiunea 30.04 inch
Vizibilitatea 10.0 mile
Nori Few 16000 ft
Cer în general noros 22000 ft
Indicele de căldură 72 °F
Punctul de rouă 66 °F
Umiditatea 82%
Precipitaţii 0.00 inch
Adâncimea zăpezii Not available.
UV 0.0 out of 12
Pollen 4.20 out of 12
Calitatea aerului Not available.
Flu Activity Not available.
METAR KDTW 280453Z 00000KT 10SM FEW160 BKN220 23/18 A3005 RMK AO2 SLP172 T02330178 403170189

More Conditions Fewer Conditions

Presiunea 30.04 inch
Vizibilitatea 10.0 mile
Nori Few 16000 ft
Cer în general noros 22000 ft
Indicele de căldură 72 °F
Punctul de rouă 66 °F
Umiditatea 82%
Precipitaţii 0.00 inch
Adâncimea zăpezii Not available.
UV 0.0 out of 12
Pollen 4.20 out of 12
Calitatea aerului Not available.
Flu Activity Not available.
METAR KDTW 280453Z 00000KT 10SM FEW160 BKN220 23/18 A3005 RMK AO2 SLP172 T02330178 403170189

More Conditions Fewer Conditions

10-Day Weather Forecast

×

Almanac

Astronomie

Jul. 28, 2015 Răsărit Apus
Timpul Actual
Crepusculul Civil
Crepusculul nautic
Răsărit Astronomic
Luna
Durata zilei lumină
Lungimea zilei
Tomorrow will be .
, % of the Moon is Illuminated

Extremele de azi

State Highs State Lows

Community

WunderPhotos

Upload Photos

1,841,796 photos uploaded!

WunderBlogs® & News

Nearby

Calitatea aerului

  Calitatea aerului Index de calitate a aerului Poluat
Not available.

Adâncimea zapezii

Station Depth Elevation

Earthquake Activity

Oraş Distance Mag. Time & Date
Minimum magnitude displayed is 2.5.

Coastal Water Temperatures

Locul Temperatura

Stations

Nearby Weather Stations

Locaţia staţiei Temp Vânt rece Punctul de rouă Umiditatea Vânt Precip. Elev Actualizare Type